Time;durP1;ratioP1;P1;durP2;ratioP2;P2;SDS_P1;SDS_P2;PMS_P1;PMS_P2;Temp;Humidity;BMP_temperature;BMP_pressure;BME280_temperature;BME280_humidity;BME280_pressure;Samples;Min_cycle;Max_cycle;Signal;HPM_P1;HPM_P2
2021/12/09 00:00:15;;;;;;;59.58;21.60;;;1.70;77.90;;;;;;4140411;28;20037;-82
2021/12/09 00:02:20;;;;;;;55.85;20.92;;;1.70;77.90;;;;;;4135841;28;20026;-82
2021/12/09 00:04:27;;;;;;;56.40;21.80;;;1.70;77.90;;;;;;4150533;28;20038;-82
2021/12/09 00:06:30;;;;;;;49.95;21.27;;;1.70;77.80;;;;;;4114870;28;20054;-82
2021/12/09 00:08:30;;;;;;;56.25;21.85;;;1.80;77.80;;;;;;4124343;28;20041;-81
2021/12/09 00:10:33;;;;;;;55.85;21.45;;;1.70;77.70;;;;;;4134506;28;20034;-82
2021/12/09 00:12:33;;;;;;;57.03;21.30;;;1.80;77.80;;;;;;4144829;28;20061;-82
2021/12/09 00:14:34;;;;;;;56.25;21.92;;;1.80;77.70;;;;;;4138680;28;20105;-82
2021/12/09 00:16:35;;;;;;;56.00;21.70;;;1.80;77.70;;;;;;4128516;28;20030;-81
2021/12/09 00:18:35;;;;;;;58.30;20.85;;;1.80;77.70;;;;;;4143487;28;20034;-81
2021/12/09 00:20:36;;;;;;;58.28;22.65;;;1.80;77.60;;;;;;4147985;28;20034;-81
2021/12/09 00:22:37;;;;;;;53.50;21.42;;;1.80;77.60;;;;;;4148627;28;20441;-81
2021/12/09 00:24:37;;;;;;;57.80;22.92;;;1.80;77.60;;;;;;4130877;28;20120;-81
2021/12/09 00:26:38;;;;;;;54.67;21.60;;;1.80;77.50;;;;;;4121731;28;20408;-81
2021/12/09 00:28:39;;;;;;;56.97;22.98;;;1.80;77.50;;;;;;4152023;28;20037;-81
2021/12/09 00:30:40;;;;;;;65.72;22.90;;;1.80;77.50;;;;;;4146751;28;20109;-81
2021/12/09 00:32:40;;;;;;;57.55;22.88;;;1.80;77.50;;;;;;4146165;28;20492;-81
2021/12/09 00:34:44;;;;;;;56.28;21.55;;;1.80;77.40;;;;;;4112238;28;20031;-81
2021/12/09 00:36:57;;;;;;;58.70;22.65;;;1.90;77.50;;;;;;4136088;28;20035;-81
2021/12/09 00:38:58;;;;;;;55.25;22.20;;;1.80;78.00;;;;;;4143310;28;20124;-80
2021/12/09 00:40:59;;;;;;;57.78;23.20;;;1.80;77.30;;;;;;4130144;28;20030;-80
2021/12/09 00:43:00;;;;;;;59.15;22.75;;;1.80;77.20;;;;;;4127973;28;20098;-80
2021/12/09 00:45:00;;;;;;;65.10;23.63;;;1.80;77.20;;;;;;4146239;28;20045;-80
2021/12/09 00:47:01;;;;;;;55.75;22.63;;;1.80;77.30;;;;;;4145792;28;20065;-80
2021/12/09 00:49:02;;;;;;;64.57;23.88;;;1.80;77.20;;;;;;4141527;28;22399;-80
2021/12/09 00:51:03;;;;;;;54.78;23.63;;;1.80;77.20;;;;;;4135818;28;20085;-79
2021/12/09 00:53:03;;;;;;;65.93;24.42;;;1.80;77.20;;;;;;4110935;28;20026;-81
2021/12/09 00:55:05;;;;;;;63.45;24.92;;;1.80;77.20;;;;;;4126170;28;20018;-80
2021/12/09 00:57:06;;;;;;;57.50;22.55;;;1.80;77.20;;;;;;4129225;28;20027;-81
2021/12/09 00:59:06;;;;;;;60.00;24.08;;;1.70;77.20;;;;;;4156459;28;20065;-80
2021/12/09 01:01:07;;;;;;;66.65;25.23;;;1.70;77.20;;;;;;4137789;28;20107;-80
2021/12/09 01:03:08;;;;;;;64.28;24.42;;;1.70;77.20;;;;;;4113318;28;20076;-81
2021/12/09 01:05:09;;;;;;;64.75;22.75;;;1.70;77.30;;;;;;4128616;28;20026;-81
2021/12/09 01:07:10;;;;;;;67.82;25.17;;;1.70;77.30;;;;;;4134654;28;20041;-80
2021/12/09 01:09:10;;;;;;;58.47;24.15;;;1.70;77.30;;;;;;4114609;28;20042;-80
2021/12/09 01:11:11;;;;;;;65.55;24.20;;;1.70;77.40;;;;;;4122657;28;20037;-80
2021/12/09 01:13:12;;;;;;;60.78;24.15;;;1.70;77.50;;;;;;4131959;28;20053;-80
2021/12/09 01:15:13;;;;;;;61.95;23.77;;;1.60;77.40;;;;;;4129947;28;20033;-79
2021/12/09 01:17:14;;;;;;;69.25;26.25;;;1.60;77.40;;;;;;4144356;28;20022;-81
2021/12/09 01:19:15;;;;;;;63.50;25.25;;;1.60;77.30;;;;;;4145592;28;20072;-81
2021/12/09 01:21:15;;;;;;;56.72;23.05;;;1.60;77.40;;;;;;4145367;28;20089;-80
2021/12/09 01:23:16;;;;;;;62.75;24.33;;;1.70;77.60;;;;;;4128583;28;20053;-80
2021/12/09 01:25:17;;;;;;;64.25;24.77;;;1.60;77.50;;;;;;4158181;28;20041;-81
2021/12/09 01:27:18;;;;;;;69.75;25.92;;;1.60;77.60;;;;;;4145372;28;20038;-80
2021/12/09 01:29:28;;;;;;;63.22;25.08;;;1.60;77.50;;;;;;4147628;28;20127;-80
2021/12/09 01:31:34;;;;;;;70.30;25.90;;;1.60;77.60;;;;;;4145765;28;20030;-80
2021/12/09 01:33:35;;;;;;;65.65;25.15;;;1.60;77.60;;;;;;4150799;28;20056;-79
2021/12/09 01:35:36;;;;;;;63.78;25.25;;;1.60;77.70;;;;;;4129679;28;20548;-79
2021/12/09 01:37:38;;;;;;;70.10;26.08;;;1.60;77.60;;;;;;4126775;28;20030;-79
2021/12/09 01:39:39;;;;;;;67.28;24.85;;;1.60;77.60;;;;;;4149016;28;20044;-80
2021/12/09 01:41:40;;;;;;;65.72;24.52;;;1.60;77.70;;;;;;4139516;28;20108;-80
2021/12/09 01:43:40;;;;;;;65.07;24.80;;;1.60;77.50;;;;;;4131454;28;20045;-79
2021/12/09 01:45:41;;;;;;;65.97;27.08;;;1.60;77.60;;;;;;4142971;28;20034;-79
2021/12/09 01:47:42;;;;;;;69.55;26.17;;;1.60;77.60;;;;;;4126333;28;20058;-79
2021/12/09 01:49:43;;;;;;;71.78;26.00;;;1.50;77.50;;;;;;4127088;28;20026;-80
2021/12/09 01:51:45;;;;;;;61.25;24.38;;;1.50;77.50;;;;;;4133916;28;20026;-79
2021/12/09 01:53:46;;;;;;;65.82;26.35;;;1.50;77.50;;;;;;4099083;28;20437;-79
2021/12/09 01:55:46;;;;;;;67.47;26.90;;;1.50;77.60;;;;;;4145394;28;20030;-81
2021/12/09 01:57:48;;;;;;;62.35;25.45;;;1.40;77.60;;;;;;4132156;28;20092;-80
2021/12/09 01:59:49;;;;;;;78.30;25.55;;;1.40;77.70;;;;;;4124708;28;20035;-80
2021/12/09 02:01:50;;;;;;;68.35;26.27;;;1.40;77.80;;;;;;4147498;28;20041;-80
2021/12/09 02:03:50;;;;;;;66.03;26.08;;;1.40;78.00;;;;;;4146911;28;20582;-81
2021/12/09 02:05:51;;;;;;;67.22;25.65;;;1.40;78.10;;;;;;4134329;28;20606;-81
2021/12/09 02:07:52;;;;;;;67.63;25.60;;;1.40;78.10;;;;;;4129171;28;20527;-80
2021/12/09 02:09:52;;;;;;;67.38;25.20;;;1.40;78.20;;;;;;4134368;28;20104;-80
2021/12/09 02:11:53;;;;;;;67.72;27.35;;;1.40;78.10;;;;;;4128577;28;20502;-80
2021/12/09 02:13:56;;;;;;;72.78;26.25;;;1.40;78.10;;;;;;4143144;28;20579;-80
2021/12/09 02:15:57;;;;;;;;;;;1.40;78.10;;;;;;4150537;28;20067;-80
2021/12/09 02:17:58;;;;;;;72.65;25.50;;;1.40;78.10;;;;;;4131582;28;20356;-79
2021/12/09 02:20:00;;;;;;;71.90;27.55;;;1.40;78.10;;;;;;4126377;28;20038;-80
2021/12/09 02:22:10;;;;;;;68.45;26.67;;;1.40;78.00;;;;;;4129653;28;20531;-80
2021/12/09 02:24:14;;;;;;;76.03;26.75;;;1.40;78.00;;;;;;4138667;28;20042;-79
2021/12/09 02:26:15;;;;;;;70.22;26.38;;;1.40;78.00;;;;;;4130383;28;20313;-79
2021/12/09 02:28:16;;;;;;;67.35;25.33;;;1.40;78.10;;;;;;4146407;28;20155;-80
2021/12/09 02:30:17;;;;;;;64.57;24.70;;;1.40;78.20;;;;;;4130190;28;20026;-80
2021/12/09 02:32:18;;;;;;;67.22;25.65;;;1.40;78.20;;;;;;4151878;28;20040;-81
2021/12/09 02:34:18;;;;;;;68.60;26.85;;;1.40;78.20;;;;;;4145722;28;20034;-80
2021/12/09 02:36:19;;;;;;;60.45;22.80;;;1.40;79.00;;;;;;4149376;28;20030;-81
2021/12/09 02:38:20;;;;;;;73.53;26.23;;;1.50;78.40;;;;;;4150154;28;20043;-81
2021/12/09 02:40:20;;;;;;;65.10;24.75;;;1.40;78.20;;;;;;4146706;28;20037;-81
2021/12/09 02:42:23;;;;;;;76.38;26.35;;;1.40;78.20;;;;;;4128422;28;20026;-82
2021/12/09 02:44:24;;;;;;;67.65;25.33;;;1.50;78.20;;;;;;4149258;28;20025;-81
2021/12/09 02:46:25;;;;;;;69.80;26.98;;;1.50;78.10;;;;;;4134921;28;20034;-82
2021/12/09 02:48:26;;;;;;;63.80;25.77;;;1.50;78.00;;;;;;4128522;28;20065;-81
2021/12/09 02:50:27;;;;;;;63.70;25.00;;;1.50;77.80;;;;;;4162825;28;20056;-81
2021/12/09 02:52:27;;;;;;;58.40;24.02;;;1.50;77.90;;;;;;4133245;28;20500;-81
2021/12/09 02:54:28;;;;;;;64.90;24.77;;;1.50;77.80;;;;;;4146986;28;20026;-81
2021/12/09 02:56:29;;;;;;;61.55;22.33;;;1.50;77.80;;;;;;4144788;28;20053;-81
2021/12/09 02:58:29;;;;;;;62.38;22.67;;;1.50;77.80;;;;;;4137083;28;20042;-81
2021/12/09 03:00:30;;;;;;;70.82;25.13;;;1.50;77.80;;;;;;4114581;28;20121;-81
2021/12/09 03:02:30;;;;;;;60.40;23.27;;;1.60;77.80;;;;;;4143384;28;20120;-80
2021/12/09 03:04:44;;;;;;;57.75;22.92;;;1.60;77.70;;;;;;4109810;28;20086;-81
2021/12/09 03:06:45;;;;;;;68.70;25.25;;;1.60;77.50;;;;;;4141433;28;20034;-81
2021/12/09 03:08:45;;;;;;;66.22;25.63;;;1.60;77.20;;;;;;4129768;28;20073;-80
2021/12/09 03:10:47;;;;;;;66.93;26.52;;;1.60;76.90;;;;;;4118734;28;20398;-81
2021/12/09 03:12:50;;;;;;;69.22;25.58;;;1.50;76.70;;;;;;4133174;28;20524;-80
2021/12/09 03:14:51;;;;;;;;;;;1.50;76.70;;;;;;4124928;28;20073;-82
2021/12/09 03:16:52;;;;;;;72.72;25.50;;;1.50;76.80;;;;;;4131785;28;20366;-82
2021/12/09 03:18:57;;;;;;;63.25;25.13;;;1.50;76.70;;;;;;4118948;28;20533;-80
2021/12/09 03:20:57;;;;;;;64.93;24.38;;;1.50;76.90;;;;;;4133956;28;20038;-80
2021/12/09 03:22:58;;;;;;;64.82;24.13;;;1.50;77.00;;;;;;4147432;28;20037;-80
2021/12/09 03:25:00;;;;;;;66.53;24.60;;;1.40;76.90;;;;;;4147157;28;20085;-80
2021/12/09 03:27:00;;;;;;;64.93;24.80;;;1.40;77.00;;;;;;4126229;28;20044;-80
2021/12/09 03:29:04;;;;;;;64.65;24.30;;;1.40;77.10;;;;;;4133398;28;20034;-80
2021/12/09 03:31:05;;;;;;;64.60;23.85;;;1.40;77.90;;;;;;4126115;28;20074;-81
2021/12/09 03:33:06;;;;;;;64.22;23.17;;;1.50;77.30;;;;;;4111965;28;20041;-81
2021/12/09 03:35:07;;;;;;;64.88;25.08;;;1.40;77.30;;;;;;4101902;28;20485;-81
2021/12/09 03:37:10;;;;;;;69.20;25.73;;;1.40;77.30;;;;;;4150469;28;20492;-81
2021/12/09 03:39:16;;;;;;;61.60;23.88;;;1.40;77.30;;;;;;4143655;28;20088;-81
2021/12/09 03:41:16;;;;;;;67.00;25.60;;;1.40;77.30;;;;;;4145081;28;20144;-81
2021/12/09 03:43:17;;;;;;;63.25;24.90;;;1.40;77.40;;;;;;4149161;28;20431;-81
2021/12/09 03:45:18;;;;;;;69.90;26.67;;;1.40;77.50;;;;;;4150057;28;20034;-80
2021/12/09 03:47:21;;;;;;;60.25;25.60;;;1.40;77.50;;;;;;4131440;28;20030;-80
2021/12/09 03:49:23;;;;;;;69.32;26.67;;;1.40;77.50;;;;;;4146383;28;20107;-80
2021/12/09 03:51:24;;;;;;;64.30;25.33;;;1.40;77.50;;;;;;4128727;28;20037;-81
2021/12/09 03:53:25;;;;;;;63.30;25.35;;;1.40;77.60;;;;;;4109185;28;20405;-81
2021/12/09 03:55:25;;;;;;;68.53;26.10;;;1.50;77.80;;;;;;4111859;28;20086;-81
2021/12/09 03:57:26;;;;;;;69.18;26.27;;;1.40;77.60;;;;;;4129307;28;20042;-81
2021/12/09 03:59:27;;;;;;;72.20;26.27;;;1.40;77.60;;;;;;4115793;28;20042;-81
2021/12/09 04:01:27;;;;;;;69.97;26.95;;;1.30;77.60;;;;;;4128913;28;20475;-80
2021/12/09 04:03:28;;;;;;;67.63;25.92;;;1.40;77.70;;;;;;4138136;28;20116;-81
2021/12/09 04:05:29;;;;;;;69.45;25.00;;;1.40;77.80;;;;;;4112492;28;20027;-80
2021/12/09 04:07:29;;;;;;;65.97;25.15;;;1.30;77.70;;;;;;4148010;28;20030;-80
2021/12/09 04:09:30;;;;;;;70.68;26.35;;;1.30;77.80;;;;;;4128440;28;20030;-81
2021/12/09 04:11:30;;;;;;;80.68;27.48;;;1.30;77.90;;;;;;4112065;28;20430;-81
2021/12/09 04:13:32;;;;;;;82.05;28.95;;;1.30;77.90;;;;;;4130520;28;20061;-82
2021/12/09 04:15:33;;;;;;;79.78;28.15;;;1.30;78.00;;;;;;4149083;28;20073;-81
2021/12/09 04:17:34;;;;;;;84.65;28.85;;;1.40;78.20;;;;;;4135248;28;20033;-80
2021/12/09 04:19:36;;;;;;;82.22;29.77;;;1.30;78.20;;;;;;4160160;28;20037;-80
2021/12/09 04:21:36;;;;;;;79.50;29.23;;;1.30;78.30;;;;;;4127534;28;20117;-80
2021/12/09 04:23:37;;;;;;;77.47;27.92;;;1.30;78.30;;;;;;4147062;28;20080;-80
2021/12/09 04:25:38;;;;;;;82.32;28.83;;;1.30;78.50;;;;;;4144703;28;20030;-79
2021/12/09 04:27:38;;;;;;;80.72;27.85;;;1.30;78.50;;;;;;4135466;28;20044;-80
2021/12/09 04:29:39;;;;;;;79.05;28.25;;;1.30;79.30;;;;;;4147363;28;20034;-80
2021/12/09 04:31:40;;;;;;;92.15;28.77;;;1.30;78.70;;;;;;4129133;28;20044;-79
2021/12/09 04:33:42;;;;;;;88.75;29.58;;;1.30;78.70;;;;;;4145446;28;20022;-80
2021/12/09 04:35:43;;;;;;;81.65;27.95;;;1.30;78.70;;;;;;4133243;28;20027;-80
2021/12/09 04:37:43;;;;;;;76.05;28.58;;;1.30;78.70;;;;;;4130646;28;20030;-81
2021/12/09 04:39:44;;;;;;;78.53;29.02;;;1.30;78.70;;;;;;4145250;28;20508;-81
2021/12/09 04:41:45;;;;;;;81.25;29.33;;;1.20;78.70;;;;;;4150466;28;20036;-80
2021/12/09 04:43:46;;;;;;;71.45;27.67;;;1.30;78.80;;;;;;4145958;28;20029;-80
2021/12/09 04:45:47;;;;;;;81.18;29.92;;;1.30;78.80;;;;;;4141979;28;20440;-81
2021/12/09 04:47:47;;;;;;;86.55;30.92;;;1.30;78.70;;;;;;4120582;28;20034;-79
2021/12/09 04:49:48;;;;;;;80.65;28.42;;;1.40;78.80;;;;;;4142270;28;20063;-80
2021/12/09 04:51:49;;;;;;;88.50;29.33;;;1.30;79.40;;;;;;4128636;28;20031;-79
2021/12/09 04:53:49;;;;;;;77.95;28.17;;;1.30;78.90;;;;;;4133647;28;20026;-79
2021/12/09 04:55:50;;;;;;;76.53;27.58;;;1.30;78.80;;;;;;4126952;28;20065;-79
2021/12/09 04:57:50;;;;;;;90.68;30.50;;;1.30;78.80;;;;;;4097595;28;20023;-79
2021/12/09 04:59:52;;;;;;;80.57;30.15;;;1.30;78.70;;;;;;4131408;28;20069;-79
2021/12/09 05:01:52;;;;;;;87.60;30.15;;;1.30;78.60;;;;;;4143001;28;20034;-79
2021/12/09 05:03:53;;;;;;;86.68;30.85;;;1.30;78.60;;;;;;4138051;28;20061;-79
2021/12/09 05:05:56;;;;;;;84.72;29.73;;;1.30;78.50;;;;;;4112916;28;20035;-78
2021/12/09 05:07:57;;;;;;;86.65;29.95;;;1.30;78.50;;;;;;4101395;28;20027;-78
2021/12/09 05:09:57;;;;;;;88.03;31.50;;;1.30;78.60;;;;;;4139002;28;20045;-78
2021/12/09 05:11:58;;;;;;;90.85;32.10;;;1.30;78.50;;;;;;4145996;28;20037;-78
2021/12/09 05:13:59;;;;;;;76.63;27.85;;;1.30;78.60;;;;;;4126152;28;20018;-77
2021/12/09 05:16:00;;;;;;;83.78;29.30;;;1.30;78.70;;;;;;4087520;28;20039;-78
2021/12/09 05:18:00;;;;;;;88.07;30.00;;;1.30;78.70;;;;;;4162663;28;20468;-77
2021/12/09 05:20:01;;;;;;;80.60;29.58;;;1.30;78.70;;;;;;4140216;28;20045;-78
2021/12/09 05:22:02;;;;;;;81.38;27.88;;;1.30;78.70;;;;;;4127307;28;20031;-77
2021/12/09 05:24:04;;;;;;;96.40;30.67;;;1.30;78.60;;;;;;4142614;28;20030;-78
2021/12/09 05:26:05;;;;;;;84.82;28.95;;;1.30;78.50;;;;;;4128821;28;20034;-78
2021/12/09 05:28:07;;;;;;;88.00;30.00;;;1.30;78.50;;;;;;4137731;28;20101;-78
2021/12/09 05:30:12;;;;;;;80.22;28.25;;;1.30;78.50;;;;;;4115465;28;20121;-77
2021/12/09 05:32:13;;;;;;;78.78;28.83;;;1.30;78.40;;;;;;4143658;28;21557;-78
2021/12/09 05:34:14;;;;;;;90.75;30.58;;;1.30;78.40;;;;;;4125150;28;20033;-77
2021/12/09 05:36:15;;;;;;;84.78;28.85;;;1.30;78.40;;;;;;4123718;28;20034;-77
2021/12/09 05:38:16;;;;;;;85.18;29.85;;;1.40;78.50;;;;;;4122889;28;20535;-77
2021/12/09 05:40:17;;;;;;;88.90;30.10;;;1.30;78.40;;;;;;4150200;28;20029;-77
2021/12/09 05:42:19;;;;;;;88.97;30.52;;;1.40;78.40;;;;;;4139801;28;20115;-77
2021/12/09 05:44:20;;;;;;;100.32;32.25;;;1.40;78.30;;;;;;4120698;28;20374;-77
2021/12/09 05:46:22;;;;;;;82.55;30.60;;;1.40;78.40;;;;;;4140591;28;20337;-77
2021/12/09 05:48:23;;;;;;;86.65;30.38;;;1.40;78.30;;;;;;4123130;28;20057;-77
2021/12/09 05:50:23;;;;;;;84.22;30.10;;;1.40;78.30;;;;;;4126506;28;21180;-78
2021/12/09 05:52:24;;;;;;;88.55;29.77;;;1.40;78.30;;;;;;4146169;28;20030;-78
2021/12/09 05:54:25;;;;;;;86.68;31.33;;;1.40;79.10;;;;;;4142954;28;20028;-78
2021/12/09 05:56:25;;;;;;;99.32;32.90;;;1.40;78.20;;;;;;4142027;28;20084;-78
2021/12/09 05:58:26;;;;;;;85.13;29.08;;;1.40;78.20;;;;;;4125608;28;20035;-78
2021/12/09 06:00:27;;;;;;;90.05;29.58;;;1.40;78.20;;;;;;4118735;28;20046;-78
2021/12/09 06:02:29;;;;;;;94.15;31.23;;;1.40;78.10;;;;;;4143183;28;20048;-78
2021/12/09 06:04:30;;;;;;;85.53;30.27;;;1.40;78.10;;;;;;4145606;28;20488;-78
2021/12/09 06:06:31;;;;;;;85.00;30.40;;;1.50;78.20;;;;;;4127915;28;20069;-78
2021/12/09 06:08:32;;;;;;;90.30;31.40;;;1.40;78.90;;;;;;4119473;28;20118;-78
2021/12/09 06:10:35;;;;;;;89.63;30.00;;;1.40;78.10;;;;;;4125662;28;20027;-78
2021/12/09 06:12:36;;;;;;;82.53;29.15;;;1.40;78.10;;;;;;4157016;28;20530;-78
2021/12/09 06:14:37;;;;;;;87.93;31.25;;;1.40;78.10;;;;;;4125402;28;20023;-77
2021/12/09 06:16:38;;;;;;;89.25;30.48;;;1.40;78.10;;;;;;4132912;28;20463;-78
2021/12/09 06:18:39;;;;;;;89.38;29.42;;;1.50;79.00;;;;;;4112928;28;20105;-78
2021/12/09 06:20:39;;;;;;;85.28;29.52;;;1.40;78.20;;;;;;4126164;28;20150;-78
2021/12/09 06:22:40;;;;;;;88.82;29.60;;;1.40;78.10;;;;;;4109027;28;20404;-77
2021/12/09 06:24:41;;;;;;;91.70;30.40;;;1.40;78.00;;;;;;4131348;28;20033;-78
2021/12/09 06:26:42;;;;;;;91.78;29.45;;;1.40;78.00;;;;;;4112923;28;20035;-78
2021/12/09 06:28:42;;;;;;;90.70;31.33;;;1.40;77.90;;;;;;4156353;28;20060;-78
2021/12/09 06:30:44;;;;;;;85.28;31.45;;;1.40;77.80;;;;;;4140702;28;20025;-78
2021/12/09 06:32:44;;;;;;;92.43;31.23;;;1.40;77.60;;;;;;4142848;28;20096;-77
2021/12/09 06:34:45;;;;;;;94.13;30.42;;;1.40;77.50;;;;;;4163049;28;20029;-78
2021/12/09 06:36:45;;;;;;;89.35;31.52;;;1.40;77.60;;;;;;4152890;28;20459;-78
2021/12/09 06:38:46;;;;;;;86.90;33.13;;;1.40;77.50;;;;;;4129550;28;20130;-78
2021/12/09 06:40:47;;;;;;;92.40;31.48;;;1.30;77.50;;;;;;4138408;28;20101;-79
2021/12/09 06:42:48;;;;;;;108.75;34.58;;;1.20;77.70;;;;;;4149787;28;20109;-79
2021/12/09 06:44:49;;;;;;;92.47;32.30;;;1.30;77.90;;;;;;4152803;28;20037;-79
2021/12/09 06:46:49;;;;;;;99.00;33.08;;;1.20;78.00;;;;;;4139093;28;20029;-79
2021/12/09 06:48:51;;;;;;;90.25;30.17;;;1.20;78.10;;;;;;4132130;28;20419;-78
2021/12/09 06:50:51;;;;;;;91.57;33.47;;;1.20;78.20;;;;;;4130196;28;20475;-79
2021/12/09 06:52:52;;;;;;;90.85;30.95;;;1.20;78.30;;;;;;4128028;28;20031;-78
2021/12/09 06:54:53;;;;;;;94.82;31.77;;;1.20;78.40;;;;;;4144820;28;20088;-79
2021/12/09 06:56:53;;;;;;;91.70;31.60;;;1.20;78.50;;;;;;4161001;28;20026;-78
2021/12/09 06:58:54;;;;;;;93.32;32.38;;;1.20;78.50;;;;;;4144578;28;20062;-78
2021/12/09 07:00:55;;;;;;;100.50;34.63;;;1.30;78.50;;;;;;4147458;28;20455;-78
2021/12/09 07:02:56;;;;;;;88.50;31.73;;;1.20;78.40;;;;;;4130712;28;20064;-78
2021/12/09 07:04:57;;;;;;;95.07;32.67;;;1.30;78.40;;;;;;4145050;28;20121;-78
2021/12/09 07:06:57;;;;;;;90.70;32.85;;;1.30;78.30;;;;;;4113941;28;20038;-78
2021/12/09 07:09:00;;;;;;;94.05;31.95;;;1.20;78.20;;;;;;4111812;28;20027;-78
2021/12/09 07:11:02;;;;;;;97.03;31.33;;;1.20;78.20;;;;;;4143575;28;20041;-78
2021/12/09 07:13:04;;;;;;;87.28;31.08;;;1.30;78.40;;;;;;4145191;28;20068;-78
2021/12/09 07:15:07;;;;;;;90.57;32.25;;;1.30;79.10;;;;;;4124375;28;20317;-78
2021/12/09 07:17:07;;;;;;;93.65;32.17;;;1.20;78.30;;;;;;4140968;28;20033;-78
2021/12/09 07:19:08;;;;;;;90.70;32.35;;;1.30;78.40;;;;;;4129166;28;20074;-78
2021/12/09 07:21:09;;;;;;;90.38;31.98;;;1.20;78.40;;;;;;4144129;28;20040;-78
2021/12/09 07:23:10;;;;;;;94.15;33.20;;;1.20;78.50;;;;;;4093513;28;20353;-78
2021/12/09 07:25:10;;;;;;;93.90;32.40;;;1.20;78.50;;;;;;4124065;28;20038;-78
2021/12/09 07:27:11;;;;;;;82.95;31.25;;;1.20;78.60;;;;;;4124852;28;20030;-78
2021/12/09 07:29:12;;;;;;;96.35;32.58;;;1.20;78.60;;;;;;4109478;28;20102;-78
2021/12/09 07:31:12;;;;;;;99.07;32.90;;;1.30;78.60;;;;;;4143292;28;20034;-78
2021/12/09 07:33:13;;;;;;;87.22;32.40;;;1.20;78.60;;;;;;4125279;28;20034;-78
2021/12/09 07:35:14;;;;;;;89.00;31.10;;;1.30;78.70;;;;;;4126797;28;20364;-78
2021/12/09 07:37:14;;;;;;;85.63;30.80;;;1.20;78.60;;;;;;4112152;28;20097;-78
2021/12/09 07:39:15;;;;;;;83.40;30.02;;;1.30;78.60;;;;;;4141757;28;20116;-78
2021/12/09 07:41:16;;;;;;;82.20;30.15;;;1.30;78.50;;;;;;4148250;28;20116;-78
2021/12/09 07:43:16;;;;;;;81.50;29.95;;;1.30;78.50;;;;;;4147316;28;20044;-77
2021/12/09 07:45:17;;;;;;;82.22;31.02;;;1.30;78.40;;;;;;4142554;28;20040;-78
2021/12/09 07:47:18;;;;;;;80.88;29.80;;;1.30;78.30;;;;;;4143051;28;20030;-78
2021/12/09 07:49:19;;;;;;;82.80;29.35;;;1.30;78.20;;;;;;4140455;28;20044;-78
2021/12/09 07:51:20;;;;;;;87.03;30.45;;;1.30;78.10;;;;;;4146895;28;20018;-78
2021/12/09 07:53:22;;;;;;;80.13;29.75;;;1.30;78.10;;;;;;4124699;28;20472;-78
2021/12/09 07:55:23;;;;;;;89.90;33.07;;;1.40;77.40;;;;;;4126180;28;20030;-78
2021/12/09 07:57:24;;;;;;;77.82;30.52;;;1.40;78.00;;;;;;4148044;28;20040;-79
2021/12/09 07:59:24;;;;;;;83.53;30.25;;;1.50;77.90;;;;;;4143737;28;20397;-78
2021/12/09 08:01:25;;;;;;;87.30;32.38;;;1.40;77.70;;;;;;4144176;28;20032;-78
2021/12/09 08:03:27;;;;;;;85.85;30.90;;;1.40;78.40;;;;;;4128075;28;20612;-78
2021/12/09 08:05:29;;;;;;;80.88;29.83;;;1.40;77.60;;;;;;4146938;28;20042;-78
2021/12/09 08:07:29;;;;;;;86.57;33.58;;;1.40;77.60;;;;;;4129636;28;20038;-78
2021/12/09 08:09:30;;;;;;;83.90;31.33;;;1.40;77.60;;;;;;4143960;28;20066;-78
2021/12/09 08:11:33;;;;;;;83.43;31.63;;;1.40;77.60;;;;;;4159899;28;20084;-78
2021/12/09 08:13:34;;;;;;;80.65;31.13;;;1.40;77.60;;;;;;4128208;28;20030;-78
2021/12/09 08:15:38;;;;;;;85.63;30.52;;;1.40;77.60;;;;;;4106289;28;20035;-78
2021/12/09 08:19:43;;;;;;;91.63;33.78;;;1.40;78.30;;;;;;4136654;28;20539;-78
2021/12/09 08:21:43;;;;;;;91.45;32.33;;;1.40;77.60;;;;;;4142920;28;20037;-78
2021/12/09 08:23:44;;;;;;;88.10;32.92;;;1.40;78.30;;;;;;4127135;28;20033;-78
2021/12/09 08:25:46;;;;;;;85.32;31.83;;;1.40;77.60;;;;;;4128283;28;20408;-78
2021/12/09 08:27:46;;;;;;;86.68;30.85;;;1.30;77.50;;;;;;4142663;28;20032;-78
2021/12/09 08:29:47;;;;;;;87.30;32.45;;;1.40;77.70;;;;;;4127599;28;20090;-77
2021/12/09 08:31:48;;;;;;;82.35;30.48;;;1.40;77.70;;;;;;4125966;28;20056;-77
2021/12/09 08:33:48;;;;;;;79.43;28.23;;;1.40;77.70;;;;;;4141628;28;20025;-78
2021/12/09 08:35:49;;;;;;;85.85;32.17;;;1.50;77.90;;;;;;4112485;28;20045;-77
2021/12/09 08:37:51;;;;;;;74.90;28.63;;;1.50;77.80;;;;;;4141515;28;20056;-77
2021/12/09 08:39:51;;;;;;;76.85;28.40;;;1.50;77.80;;;;;;4158660;28;20577;-78
2021/12/09 08:41:52;;;;;;;83.25;29.60;;;1.50;77.60;;;;;;4144026;28;20029;-78
2021/12/09 08:43:53;;;;;;;88.63;30.90;;;1.60;77.60;;;;;;4141157;28;20029;-77
2021/12/09 08:45:53;;;;;;;78.15;30.30;;;1.60;77.60;;;;;;4138350;28;20049;-77
2021/12/09 08:47:54;;;;;;;84.32;29.80;;;1.70;77.50;;;;;;4141263;28;20040;-78
2021/12/09 08:49:54;;;;;;;83.32;31.02;;;1.70;77.40;;;;;;4126327;28;20146;-78
2021/12/09 08:51:55;;;;;;;82.78;30.73;;;1.70;77.20;;;;;;4126631;28;20536;-78
2021/12/09 08:53:58;;;;;;;86.85;31.15;;;1.70;77.10;;;;;;4110147;28;20031;-77
2021/12/09 08:55:59;;;;;;;82.90;30.65;;;1.70;76.90;;;;;;4155985;28;20134;-78
2021/12/09 08:58:00;;;;;;;88.22;32.97;;;1.70;76.80;;;;;;4144013;28;20037;-78
2021/12/09 09:00:00;;;;;;;96.03;35.17;;;1.80;76.50;;;;;;4146729;28;20150;-78
2021/12/09 09:02:01;;;;;;;80.40;29.05;;;1.80;76.20;;;;;;4135126;28;20026;-78
2021/12/09 09:04:02;;;;;;;76.82;29.60;;;1.70;76.30;;;;;;4148185;28;20038;-78
2021/12/09 09:06:03;;;;;;;86.47;30.92;;;1.70;76.30;;;;;;4140696;28;20034;-77
2021/12/09 09:08:04;;;;;;;84.68;31.77;;;1.70;76.30;;;;;;4130259;28;20463;-78
2021/12/09 09:10:06;;;;;;;92.65;33.25;;;1.70;76.30;;;;;;4123315;28;20026;-77
2021/12/09 09:12:11;;;;;;;88.80;31.88;;;1.70;76.20;;;;;;4125134;28;20022;-79
2021/12/09 09:14:11;;;;;;;79.07;30.27;;;1.70;75.90;;;;;;4144080;28;20486;-79
2021/12/09 09:16:12;;;;;;;90.03;31.17;;;1.70;76.00;;;;;;4132810;28;20045;-78
2021/12/09 09:18:13;;;;;;;80.55;30.00;;;1.70;75.70;;;;;;4130757;28;20022;-78
2021/12/09 09:20:17;;;;;;;78.75;31.10;;;1.60;75.70;;;;;;4149622;28;20613;-78
2021/12/09 09:22:17;;;;;;;88.10;30.42;;;1.60;75.80;;;;;;4135316;28;20121;-78
2021/12/09 09:24:18;;;;;;;84.55;31.95;;;1.60;75.80;;;;;;4131040;28;20064;-77
2021/12/09 09:26:19;;;;;;;83.30;30.95;;;1.60;75.90;;;;;;4150129;28;20418;-77
2021/12/09 09:28:20;;;;;;;77.70;29.48;;;1.50;76.00;;;;;;4147482;28;20040;-78
2021/12/09 09:30:20;;;;;;;81.00;29.67;;;1.50;76.10;;;;;;4140141;28;20121;-77
2021/12/09 09:32:21;;;;;;;78.15;30.13;;;1.50;76.20;;;;;;4143901;28;20022;-78
2021/12/09 09:34:23;;;;;;;81.05;28.90;;;1.60;76.30;;;;;;4146720;28;20041;-78
2021/12/09 09:36:23;;;;;;;87.50;30.35;;;1.50;76.30;;;;;;4132105;28;20034;-78
2021/12/09 09:38:24;;;;;;;83.35;30.92;;;1.60;76.30;;;;;;4161847;28;20131;-78
2021/12/09 09:40:30;;;;;;;79.53;29.45;;;1.60;76.30;;;;;;4094051;28;20027;-78
2021/12/09 09:42:56;;;;;;;84.65;30.98;;;1.60;76.30;;;;;;4122736;28;20019;-78
2021/12/09 09:44:54;;;;;;;90.47;32.80;;;1.60;76.10;;;;;;4139054;28;20499;-78
2021/12/09 09:46:59;;;;;;;81.28;30.75;;;1.60;76.10;;;;;;4146103;28;20033;-78
2021/12/09 09:49:01;;;;;;;83.15;29.33;;;1.60;76.00;;;;;;4149491;28;20033;-78
2021/12/09 09:51:02;;;;;;;88.10;31.23;;;1.60;76.00;;;;;;4141165;28;20038;-78
2021/12/09 09:53:03;;;;;;;79.78;28.58;;;1.60;75.90;;;;;;4126237;28;20520;-78
2021/12/09 09:55:08;;;;;;;86.05;31.70;;;1.70;76.00;;;;;;4113761;28;20155;-78
2021/12/09 09:57:09;;;;;;;88.00;31.90;;;1.60;75.50;;;;;;4127252;28;20506;-78
2021/12/09 09:59:10;;;;;;;92.38;32.22;;;1.60;75.60;;;;;;4148969;28;20061;-77
2021/12/09 10:01:10;;;;;;;86.20;30.65;;;1.60;75.60;;;;;;4149227;28;20406;-78
2021/12/09 10:03:16;;;;;;;87.50;30.10;;;1.60;75.60;;;;;;4142453;28;20046;-78
2021/12/09 10:05:22;;;;;;;93.13;31.50;;;1.60;75.70;;;;;;4130784;28;20041;-78
2021/12/09 10:07:23;;;;;;;83.72;32.53;;;1.70;76.00;;;;;;4130806;28;20110;-78
2021/12/09 10:09:23;;;;;;;95.13;32.22;;;1.60;75.80;;;;;;4126042;28;20125;-78
2021/12/09 10:11:24;;;;;;;86.10;30.77;;;1.60;75.70;;;;;;4130306;28;20034;-78
2021/12/09 10:13:29;;;;;;;86.65;31.92;;;1.70;75.60;;;;;;4147947;28;20038;-77
2021/12/09 10:15:44;;;;;;;85.05;31.40;;;1.60;75.40;;;;;;4145575;28;20026;-77
2021/12/09 10:17:45;;;;;;;91.13;31.83;;;1.60;75.60;;;;;;4150928;28;20431;-77
2021/12/09 10:19:46;;;;;;;82.50;30.63;;;1.60;75.60;;;;;;4149527;28;20034;-77
2021/12/09 10:21:48;;;;;;;88.55;29.25;;;1.60;75.50;;;;;;4162228;28;20714;-77
2021/12/09 10:24:00;;;;;;;91.80;31.30;;;1.60;75.50;;;;;;4149227;28;20032;-77
2021/12/09 10:26:14;;;;;;;90.68;32.05;;;1.50;75.40;;;;;;4143709;28;20033;-78